Time;durP1;ratioP1;P1;durP2;ratioP2;P2;SDS_P1;SDS_P2;PMS_P1;PMS_P2;Temp;Humidity;BMP_temperature;BMP_pressure;BME280_temperature;BME280_humidity;BME280_pressure;Samples;Min_cycle;Max_cycle;Signal;HPM_P1;HPM_P2
2022/07/10 00:00:10;;;;;;;3.55;1.30;;;;;;;-144.47;48.21;53370.53;5006110;28;20151;-67
2022/07/10 00:02:37;;;;;;;8.57;1.17;;;;;;;-144.47;48.35;53358.63;4969954;28;20033;-65
2022/07/10 00:05:04;;;;;;;5.70;1.80;;;;;;;-144.47;48.04;53360.63;4998505;28;20056;-65
2022/07/10 00:07:29;;;;;;;4.78;1.25;;;;;;;-144.47;48.12;53402.31;4984706;28;20085;-66
2022/07/10 00:09:54;;;;;;;6.28;1.13;;;;;;;-144.47;47.92;53328.81;4967187;28;20031;-64
2022/07/10 00:12:20;;;;;;;8.27;1.23;;;;;;;-144.47;48.04;53350.69;4989033;28;20026;-67
2022/07/10 00:14:45;;;;;;;6.05;1.38;;;;;;;-144.47;48.05;53350.69;4973708;28;20023;-66
2022/07/10 00:17:10;;;;;;;6.53;1.33;;;;;;;-144.47;48.01;53332.81;4999540;28;20436;-67
2022/07/10 00:19:36;;;;;;;9.32;1.85;;;;;;;-144.47;48.17;53366.56;4988174;28;20027;-67
2022/07/10 00:22:01;;;;;;;6.10;1.38;;;;;;;-144.47;48.41;53324.84;4994600;28;20427;-67
2022/07/10 00:24:26;;;;;;;6.53;0.95;;;;;;;-144.47;48.47;53356.63;4986040;28;20030;-65
2022/07/10 00:26:52;;;;;;;3.67;1.10;;;;;;;-144.47;48.56;53332.81;4998940;28;20033;-67
2022/07/10 00:29:17;;;;;;;5.90;1.13;;;;;;;-144.47;48.71;53376.50;4993859;28;20084;-65
2022/07/10 00:31:43;;;;;;;6.03;0.93;;;;;;;-144.47;48.82;53352.66;5004038;28;20029;-65
2022/07/10 00:34:08;;;;;;;9.38;1.30;;;;;;;-144.47;48.89;53376.50;4967501;28;20426;-64
2022/07/10 00:36:33;;;;;;;4.18;1.05;;;;;;;-144.47;49.03;53364.59;4970256;28;20074;-65
2022/07/10 00:38:59;;;;;;;8.45;1.80;;;;;;;-144.47;49.28;53358.63;4971653;28;20136;-65
2022/07/10 00:41:24;;;;;;;11.38;1.50;;;;;;;-144.47;49.52;53314.91;4965814;28;20037;-64
2022/07/10 00:43:58;;;;;;;9.63;1.40;;;;;;;-144.47;49.48;53352.66;4992941;28;20465;-67
2022/07/10 00:46:25;;;;;;;8.77;1.33;;;;;;;-144.47;49.63;53342.72;4990285;28;20559;-64
2022/07/10 00:48:50;;;;;;;8.60;1.67;;;;;;;-144.47;49.58;53352.66;4982282;28;20030;-68
2022/07/10 00:51:18;;;;;;;7.50;1.27;;;;;;;-144.47;49.82;53336.78;4989517;28;20018;-66
2022/07/10 00:53:48;;;;;;;7.75;1.20;;;;;;;-144.47;50.04;53336.78;5008022;28;20091;-67
2022/07/10 00:56:16;;;;;;;6.68;1.17;;;;;;;-144.47;50.09;53322.88;4992761;28;20034;-67
2022/07/10 00:58:43;;;;;;;9.13;1.33;;;;;;;-144.47;50.31;53324.84;5010062;28;20095;-67
2022/07/10 01:01:09;;;;;;;11.93;1.45;;;;;;;-144.47;50.55;53356.63;5007011;28;20034;-64
2022/07/10 01:03:35;;;;;;;5.88;1.27;;;;;;;-144.47;50.67;53336.78;5000326;28;20030;-62
2022/07/10 01:06:00;;;;;;;4.50;0.98;;;;;;;-144.47;50.60;53348.69;4995408;28;20038;-65
2022/07/10 01:08:27;;;;;;;6.55;1.02;;;;;;;-144.47;50.93;53396.38;5009774;28;20127;-64
2022/07/10 01:10:52;;;;;;;9.57;1.50;;;;;;;-144.47;50.95;53336.78;4982919;28;20110;-65
2022/07/10 01:13:18;;;;;;;15.35;1.55;;;;;;;-144.47;50.86;53368.56;5000424;28;20038;-65
2022/07/10 01:15:44;;;;;;;6.97;1.10;;;;;;;-144.47;50.83;53318.91;5004505;28;20487;-65
2022/07/10 01:18:10;;;;;;;18.95;2.47;;;;;;;-144.47;50.68;53350.69;4988156;28;20052;-66
2022/07/10 01:20:35;;;;;;;8.60;1.50;;;;;;;-144.47;50.98;53328.81;4978949;28;20391;-63
2022/07/10 01:23:01;;;;;;;11.55;1.45;;;;;;;-144.47;50.95;53336.78;4987123;28;20034;-70
2022/07/10 01:25:27;;;;;;;7.93;1.52;;;;;;;-144.47;50.94;53352.66;4985815;28;20496;-65
2022/07/10 01:27:52;;;;;;;18.02;1.30;;;;;;;-144.47;50.95;53340.75;5009232;28;20041;-69
2022/07/10 01:30:19;;;;;;;10.30;1.38;;;;;;;-144.47;51.17;53368.56;5006561;28;20383;-67
2022/07/10 01:32:44;;;;;;;7.20;1.10;;;;;;;-144.47;50.95;53348.69;4989651;28;20472;-64
2022/07/10 01:35:10;;;;;;;10.63;1.95;;;;;;;-144.47;51.09;53336.78;4988106;28;20129;-67
2022/07/10 01:37:35;;;;;;;10.82;1.25;;;;;;;-144.47;51.19;53384.44;4987518;28;20041;-64
2022/07/10 01:40:01;;;;;;;11.93;2.33;;;;;;;-144.47;50.97;53390.41;5006750;28;20022;-67
2022/07/10 01:42:26;;;;;;;8.18;1.42;;;;;;;-144.47;51.44;53330.81;4990374;28;20050;-65
2022/07/10 01:44:51;;;;;;;8.07;1.40;;;;;;;-144.47;51.61;53324.84;5003057;28;20463;-69
2022/07/10 01:47:17;;;;;;;9.20;1.42;;;;;;;-144.47;51.28;53400.34;4995844;28;20068;-63
2022/07/10 01:49:43;;;;;;;10.88;1.40;;;;;;;-144.47;51.44;53344.72;4983476;28;20135;-67
2022/07/10 01:52:09;;;;;;;15.40;1.40;;;;;;;-144.47;51.59;53364.59;4977756;28;20077;-67
2022/07/10 01:54:34;;;;;;;6.38;1.52;;;;;;;-144.47;51.73;53316.91;5000287;28;20065;-64
2022/07/10 01:57:00;;;;;;;6.55;1.40;;;;;;;-144.47;51.76;53352.66;4999905;28;20061;-69
2022/07/10 01:59:25;;;;;;;5.18;1.27;;;;;;;-144.47;51.81;53362.59;4985818;28;20545;-63
2022/07/10 02:01:50;;;;;;;7.00;1.70;;;;;;;-144.47;51.83;53360.63;4979592;28;20495;-65
2022/07/10 02:07:00;;;;;;;6.72;1.13;;;;;;;-144.47;52.41;53372.53;4996595;23;20554;-67
2022/07/10 02:09:25;;;;;;;7.05;1.40;;;;;;;-144.47;52.44;53360.63;4974514;28;20039;-65
2022/07/10 02:11:50;;;;;;;17.08;1.77;;;;;;;-144.47;52.44;53348.69;4975594;28;20117;-66
2022/07/10 02:14:16;;;;;;;8.68;1.33;;;;;;;-144.47;51.95;53370.53;4976976;28;20026;-67
2022/07/10 02:16:41;;;;;;;8.80;1.05;;;;;;;-144.47;52.21;53346.72;4991194;28;20499;-69
2022/07/10 02:19:06;;;;;;;5.20;1.20;;;;;;;-144.47;52.04;53348.69;4991239;28;20515;-68
2022/07/10 02:21:32;;;;;;;8.32;1.38;;;;;;;-144.47;52.45;53342.72;4970922;28;20620;-69
2022/07/10 02:23:57;;;;;;;10.65;1.65;;;;;;;-144.47;52.44;53366.56;4991581;28;20151;-69
2022/07/10 02:26:22;;;;;;;10.30;1.30;;;;;;;-144.47;52.78;53378.50;5000486;28;20034;-67
2022/07/10 02:28:48;;;;;;;7.00;1.33;;;;;;;-144.47;53.01;53330.81;5006552;28;20036;-67
2022/07/10 02:31:13;;;;;;;5.90;1.45;;;;;;;-144.47;52.76;53396.38;5009697;28;20168;-66
2022/07/10 02:33:39;;;;;;;8.10;1.38;;;;;;;-144.47;53.04;53390.41;5006568;28;20049;-65
2022/07/10 02:36:04;;;;;;;9.98;1.50;;;;;;;-144.47;52.93;53376.50;4980969;28;20476;-66
2022/07/10 02:38:30;;;;;;;7.18;1.40;;;;;;;-144.47;52.98;53376.50;4984853;28;20054;-69
2022/07/10 02:40:55;;;;;;;7.13;1.10;;;;;;;-144.47;53.02;53376.50;4989395;28;20125;-64
2022/07/10 02:43:20;;;;;;;6.68;1.20;;;;;;;-144.47;52.96;53346.72;4973909;28;20035;-66
2022/07/10 02:45:46;;;;;;;6.63;1.20;;;;;;;-144.47;53.08;53374.50;4972366;28;20586;-67
2022/07/10 02:48:11;;;;;;;7.35;1.38;;;;;;;-144.47;53.38;53372.53;4974824;28;20455;-67
2022/07/10 02:50:37;;;;;;;11.88;1.55;;;;;;;-144.47;53.27;53406.31;4988847;28;20023;-67
2022/07/10 02:53:03;;;;;;;5.95;1.52;;;;;;;-144.47;53.32;53402.31;4988474;28;20463;-68
2022/07/10 02:55:31;;;;;;;8.65;1.20;;;;;;;-144.47;53.39;53360.63;5008879;28;20083;-69
2022/07/10 02:57:56;;;;;;;11.30;1.67;;;;;;;-144.47;53.34;53348.69;4995286;28;20030;-66
2022/07/10 03:00:22;;;;;;;10.23;1.08;;;;;;;-144.47;53.48;53328.81;4999938;28;20033;-66
2022/07/10 03:02:47;;;;;;;4.45;1.23;;;;;;;-144.47;53.56;53370.53;4989285;28;20023;-66
2022/07/10 03:05:13;;;;;;;5.68;1.20;;;;;;;-144.47;53.56;53348.69;4989191;28;20030;-68
2022/07/10 03:07:38;;;;;;;8.20;1.08;;;;;;;-144.47;53.76;53352.66;4991068;28;20018;-68
2022/07/10 03:10:04;;;;;;;7.40;2.22;;;;;;;-144.47;54.03;53356.63;4990566;28;20102;-68
2022/07/10 03:12:30;;;;;;;9.63;1.60;;;;;;;-144.47;53.78;53332.81;4981806;28;20178;-68
2022/07/10 03:14:55;;;;;;;5.15;2.00;;;;;;;-144.47;54.08;53324.84;4988235;28;20025;-67
2022/07/10 03:17:20;;;;;;;7.97;1.45;;;;;;;-144.47;54.21;53380.47;4996273;28;20396;-69
2022/07/10 03:19:45;;;;;;;6.57;1.33;;;;;;;-144.47;54.20;53336.78;5008659;28;20105;-68
2022/07/10 03:22:11;;;;;;;8.40;1.48;;;;;;;-144.47;54.30;53342.72;4983122;28;20403;-67
2022/07/10 03:24:36;;;;;;;9.68;1.30;;;;;;;-144.47;54.52;53402.31;4995273;28;20460;-64
2022/07/10 03:27:02;;;;;;;15.63;2.42;;;;;;;-144.47;54.45;53376.50;4973973;28;20026;-66
2022/07/10 03:29:27;;;;;;;13.55;1.45;;;;;;;-144.47;54.30;53364.59;5003945;28;20512;-67
2022/07/10 03:31:53;;;;;;;10.25;2.05;;;;;;;-144.47;54.41;53354.66;4993131;28;20109;-65
2022/07/10 03:34:18;;;;;;;8.07;1.77;;;;;;;-144.47;54.05;53362.59;5002886;28;20026;-67
2022/07/10 03:36:43;;;;;;;10.32;1.75;;;;;;;-144.47;53.70;53412.25;5003096;28;20062;-67
2022/07/10 03:39:09;;;;;;;14.35;2.08;;;;;;;-144.47;53.54;53390.41;4999509;28;20090;-68
2022/07/10 03:41:35;;;;;;;5.38;1.52;;;;;;;-144.47;53.33;53372.53;4981494;28;20066;-68
2022/07/10 03:44:00;;;;;;;8.55;1.60;;;;;;;-144.47;53.33;53370.53;5000792;28;20030;-67
2022/07/10 03:46:26;;;;;;;9.20;1.58;;;;;;;-144.47;53.54;53388.41;4977815;28;20032;-65
2022/07/10 03:48:51;;;;;;;8.23;1.52;;;;;;;-144.47;53.40;53344.72;4999774;28;20026;-67
2022/07/10 03:51:17;;;;;;;6.28;1.48;;;;;;;-144.47;53.34;53372.53;4985618;28;20059;-66
2022/07/10 03:53:42;;;;;;;9.70;1.52;;;;;;;-144.47;53.40;53366.56;4996182;28;20037;-66
2022/07/10 03:56:07;;;;;;;15.48;1.33;;;;;;;-144.47;53.15;53356.63;4979003;28;20113;-65
2022/07/10 03:58:33;;;;;;;8.68;1.55;;;;;;;-144.47;53.31;53376.50;4969407;28;20117;-66
2022/07/10 04:00:58;;;;;;;11.48;1.63;;;;;;;-144.47;53.24;53352.66;4984194;28;20054;-67
2022/07/10 04:03:23;;;;;;;9.95;1.33;;;;;;;-144.47;53.26;53380.47;5012312;28;20061;-68
2022/07/10 04:05:49;;;;;;;10.43;1.20;;;;;;;-144.47;53.53;53356.63;4993783;28;20037;-67
2022/07/10 04:08:14;;;;;;;7.80;1.23;;;;;;;-144.47;53.40;53364.59;4987744;28;20073;-65
2022/07/10 04:10:40;;;;;;;16.70;1.55;;;;;;;-144.47;53.58;53374.50;4978520;28;20065;-66
2022/07/10 04:13:05;;;;;;;4.30;1.20;;;;;;;-144.47;53.72;53358.63;4975603;28;20038;-67
2022/07/10 04:15:31;;;;;;;11.60;1.30;;;;;;;-144.47;53.88;53360.63;4975476;28;20073;-65
2022/07/10 04:17:56;;;;;;;7.65;1.20;;;;;;;-144.47;53.96;53370.53;4996533;28;20378;-69
2022/07/10 04:20:22;;;;;;;10.25;1.35;;;;;;;-144.47;53.86;53376.50;4996236;28;20053;-67
2022/07/10 04:22:47;;;;;;;10.77;2.08;;;;;;;-144.47;53.91;53364.59;5003370;28;20030;-66
2022/07/10 04:25:13;;;;;;;12.27;1.30;;;;;;;-144.47;53.90;53384.44;4990533;28;20103;-67
2022/07/10 04:27:38;;;;;;;13.10;1.42;;;;;;;-144.47;53.93;53350.69;5012277;28;20426;-65
2022/07/10 04:30:05;;;;;;;5.70;1.50;;;;;;;-144.47;54.08;53358.63;5010901;28;20072;-65
2022/07/10 04:32:30;;;;;;;8.88;1.20;;;;;;;-144.47;53.99;53354.66;4979984;28;20033;-64
2022/07/10 04:34:55;;;;;;;5.10;1.38;;;;;;;-144.47;54.23;53392.41;4993055;28;20046;-66
2022/07/10 04:37:21;;;;;;;9.63;1.30;;;;;;;-144.47;55.08;53376.50;4997815;28;20030;-67
2022/07/10 04:39:46;;;;;;;6.03;1.67;;;;;;;-144.47;55.78;53406.31;4991965;28;20034;-67
2022/07/10 04:42:12;;;;;;;7.95;1.27;;;;;;;-144.47;55.75;53380.47;4998040;28;20029;-67
2022/07/10 04:44:37;;;;;;;4.32;0.75;;;;;;;-144.47;56.25;53392.41;4991363;28;20034;-68
2022/07/10 04:47:03;;;;;;;3.72;1.05;;;;;;;-144.47;56.54;53374.50;4986254;28;20603;-66
2022/07/10 04:49:29;;;;;;;13.50;1.85;;;;;;;-144.47;57.63;53382.47;4986912;28;20045;-65
2022/07/10 04:51:58;;;;;;;10.10;1.10;;;;;;;-144.47;58.67;53390.41;4993915;28;20046;-66
2022/07/10 04:54:23;;;;;;;20.95;1.50;;;;;;;-144.47;59.40;53366.56;4991303;28;20171;-64
2022/07/10 04:56:49;;;;;;;7.47;1.48;;;;;;;-144.47;60.20;53418.22;4986885;28;20708;-67
2022/07/10 04:59:14;;;;;;;4.90;1.05;;;;;;;-144.47;61.01;53396.38;4992200;28;20030;-66
2022/07/10 05:01:40;;;;;;;14.82;1.33;;;;;;;-144.47;61.21;53370.53;4997346;28;20049;-66
2022/07/10 05:04:05;;;;;;;6.38;1.02;;;;;;;-144.47;61.49;53430.13;4991715;28;20132;-66
2022/07/10 05:06:30;;;;;;;7.70;1.30;;;;;;;-144.47;61.36;53364.59;4985779;28;20023;-67
2022/07/10 05:08:56;;;;;;;4.40;1.70;;;;;;;-144.47;61.69;53430.13;4988661;28;20115;-66
2022/07/10 05:11:22;;;;;;;9.55;1.10;;;;;;;-144.47;61.68;53390.41;4987214;28;20085;-65
2022/07/10 05:13:48;;;;;;;6.97;1.13;;;;;;;-144.47;61.96;53416.22;4991421;28;20395;-67
2022/07/10 05:16:17;;;;;;;12.68;1.90;;;;;;;-144.47;62.23;53394.38;4980897;28;20488;-66
2022/07/10 05:18:43;;;;;;;11.95;1.40;;;;;;;-144.47;62.59;53440.06;4993676;28;20038;-67
2022/07/10 05:21:08;;;;;;;6.20;1.02;;;;;;;-144.47;62.78;53440.06;4991419;28;20018;-66
2022/07/10 05:23:35;;;;;;;8.52;1.25;;;;;;;-144.47;63.01;53432.13;4974088;28;20030;-66
2022/07/10 05:26:00;;;;;;;4.72;1.15;;;;;;;-144.47;62.81;53408.28;4982355;28;20062;-67
2022/07/10 05:28:25;;;;;;;6.07;1.20;;;;;;;-144.47;62.53;53382.47;4984097;28;20408;-66
2022/07/10 05:30:51;;;;;;;10.27;1.63;;;;;;;-144.47;63.34;53416.22;4988604;28;20466;-66
2022/07/10 05:33:17;;;;;;;6.07;1.30;;;;;;;-144.47;63.81;53434.09;4996860;28;20119;-66
2022/07/10 05:35:42;;;;;;;11.05;1.63;;;;;;;-144.47;65.34;53406.31;4996079;28;20407;-65
2022/07/10 05:38:08;;;;;;;9.07;1.10;;;;;;;-144.47;65.93;53444.03;4994991;28;20934;-67
2022/07/10 05:40:33;;;;;;;7.47;1.25;;;;;;;-144.47;65.99;53400.34;4978795;28;20113;-65
2022/07/10 05:42:59;;;;;;;6.28;1.30;;;;;;;-144.47;65.79;53424.19;4987448;28;20061;-62
2022/07/10 05:45:24;;;;;;;4.30;1.00;;;;;;;-144.47;66.11;53428.16;4993325;28;20089;-66
2022/07/10 05:47:50;;;;;;;16.08;2.15;;;;;;;-144.47;66.36;53400.34;5002930;28;20022;-67
2022/07/10 05:50:15;;;;;;;9.20;1.90;;;;;;;-144.47;66.33;53402.31;5001098;28;20109;-67
2022/07/10 05:52:42;;;;;;;12.30;1.58;;;;;;;-144.47;66.64;53410.28;4972330;28;20054;-68
2022/07/10 05:55:07;;;;;;;8.90;1.58;;;;;;;-144.47;66.66;53422.19;4991378;28;20023;-69
2022/07/10 05:57:33;;;;;;;12.80;2.05;;;;;;;-144.47;67.48;53420.22;5010211;28;20407;-68
2022/07/10 05:59:58;;;;;;;17.10;1.98;;;;;;;-144.47;67.61;53402.31;5010716;28;20026;-68
2022/07/10 06:02:24;;;;;;;15.40;2.05;;;;;;;-144.47;66.88;53452.00;5002194;28;20570;-67
2022/07/10 06:04:49;;;;;;;5.85;1.75;;;;;;;-144.47;68.00;53382.47;4985811;28;20345;-66
2022/07/10 06:07:15;;;;;;;10.45;1.80;;;;;;;-144.47;69.78;53416.22;5001936;28;20084;-66
2022/07/10 06:09:41;;;;;;;11.18;1.80;;;;;;;-144.47;71.80;53404.31;4987850;28;20433;-67
2022/07/10 06:12:07;;;;;;;5.65;1.70;;;;;;;-144.47;72.43;53412.25;4971925;28;20082;-68
2022/07/10 06:14:32;;;;;;;13.80;2.53;;;;;;;-144.47;73.01;53416.22;4984966;28;20019;-67
2022/07/10 06:16:57;;;;;;;12.52;2.38;;;;;;;-144.47;72.71;53452.00;4971385;28;20645;-66
2022/07/10 06:19:23;;;;;;;6.13;1.65;;;;;;;-144.47;72.31;53438.09;4973070;28;20018;-66
2022/07/10 06:22:29;;;;;;;5.60;1.20;;;;;;;-144.47;70.95;53448.00;4985965;28;20030;-67
2022/07/10 06:24:33;;;;;;;5.70;1.65;;;;;;;-144.47;71.23;53440.06;4982908;28;20030;-67
2022/07/10 06:26:59;;;;;;;3.85;1.40;;;;;;;-144.47;70.64;53440.06;4972331;28;20033;-66
2022/07/10 06:29:24;;;;;;;10.43;1.73;;;;;;;-144.47;69.40;53465.91;4973427;28;20026;-64
2022/07/10 06:31:49;;;;;;;6.07;1.20;;;;;;;-144.47;68.67;53450.00;4971435;28;20403;-65
2022/07/10 06:34:15;;;;;;;8.10;1.90;;;;;;;-144.47;69.65;53408.28;4985650;28;20034;-67
2022/07/10 06:36:40;;;;;;;9.25;1.45;;;;;;;-144.47;69.54;53453.97;4971908;28;20081;-69
2022/07/10 06:39:05;;;;;;;8.52;1.70;;;;;;;-144.47;69.02;53432.13;4977326;28;20496;-66
2022/07/10 06:41:31;;;;;;;6.38;1.50;;;;;;;-144.47;67.99;53467.88;4982454;28;20450;-66
2022/07/10 06:43:56;;;;;;;14.38;1.88;;;;;;;-144.47;68.30;53416.22;4984583;28;20033;-66
2022/07/10 06:46:21;;;;;;;11.48;2.10;;;;;;;-144.47;68.30;53453.97;4981671;28;20052;-67
2022/07/10 06:48:47;;;;;;;6.45;1.65;;;;;;;-144.47;68.57;53436.09;4982419;28;20528;-68
2022/07/10 06:51:12;;;;;;;8.32;2.00;;;;;;;-144.47;68.37;53453.97;4975194;28;20440;-65
2022/07/10 06:53:37;;;;;;;5.90;1.58;;;;;;;-144.47;68.59;53446.03;4984603;28;20114;-67
2022/07/10 06:56:03;;;;;;;7.90;1.60;;;;;;;-144.47;68.00;53424.19;4990133;28;20484;-66
2022/07/10 06:58:28;;;;;;;6.55;2.22;;;;;;;-144.47;68.61;53414.25;4989803;28;20022;-67
2022/07/10 07:00:54;;;;;;;7.32;2.42;;;;;;;-144.47;67.43;53424.19;5002671;28;20052;-67
2022/07/10 07:03:19;;;;;;;4.50;1.50;;;;;;;-144.47;67.52;53396.38;4996982;28;20491;-67
2022/07/10 07:05:44;;;;;;;9.25;1.50;;;;;;;-144.47;67.68;53406.31;4998657;28;20555;-66
2022/07/10 07:08:10;;;;;;;10.25;2.80;;;;;;;-144.47;67.02;53457.94;5001597;28;20089;-67
2022/07/10 07:10:35;;;;;;;10.25;2.35;;;;;;;-144.47;66.02;53428.16;5001626;28;20026;-67
2022/07/10 07:13:02;;;;;;;6.90;1.80;;;;;;;-144.47;65.67;53408.28;4971219;28;20031;-67
2022/07/10 07:15:28;;;;;;;14.63;2.28;;;;;;;-144.47;65.38;53404.31;4999762;28;20021;-66
2022/07/10 07:18:11;;;;;;;13.15;1.83;;;;;;;-144.47;64.61;53426.16;5009216;28;20080;-65
2022/07/10 07:23:22;;;;;;;10.18;1.75;;;;;;;-144.47;63.90;53400.34;4985704;28;20069;-68
2022/07/10 07:25:47;;;;;;;7.40;1.77;;;;;;;-144.47;64.98;53394.38;4981936;28;20485;-65
2022/07/10 07:28:18;;;;;;;7.40;1.50;;;;;;;-144.47;65.02;53394.38;4997714;28;20108;-66
2022/07/10 07:30:44;;;;;;;9.52;1.60;;;;;;;-144.47;63.99;53374.50;5007004;28;20030;-67
2022/07/10 07:33:10;;;;;;;8.38;1.48;;;;;;;-144.47;64.99;53404.31;4995219;28;20042;-67
2022/07/10 07:35:35;;;;;;;6.18;1.63;;;;;;;-144.47;64.36;53410.28;4997779;28;20072;-67
2022/07/10 07:38:02;;;;;;;5.95;1.52;;;;;;;-144.47;63.99;53436.09;5003000;28;20101;-68
2022/07/10 07:40:27;;;;;;;4.97;1.40;;;;;;;-144.47;63.87;53378.50;4979493;28;20085;-66
2022/07/10 07:42:54;;;;;;;7.38;1.33;;;;;;;-144.47;63.38;53384.44;4974269;28;20030;-66
2022/07/10 07:45:20;;;;;;;5.30;1.20;;;;;;;-144.47;63.36;53384.44;4970742;28;20026;-70
2022/07/10 07:47:48;;;;;;;5.32;1.23;;;;;;;-144.47;63.37;53416.22;4972184;28;20042;-66
2022/07/10 07:50:15;;;;;;;6.35;1.45;;;;;;;-144.47;63.35;53370.53;4978034;28;20030;-67
2022/07/10 07:52:41;;;;;;;7.82;1.67;;;;;;;-144.47;63.28;53378.50;4973979;28;20085;-70
2022/07/10 07:55:07;;;;;;;7.78;1.52;;;;;;;-144.47;61.33;53418.22;4969700;28;20030;-66
2022/07/10 07:57:32;;;;;;;8.00;1.50;;;;;;;-144.47;61.04;53378.50;4972485;28;20026;-66
2022/07/10 07:59:57;;;;;;;5.93;2.05;;;;;;;-144.47;59.55;53410.28;4971821;28;20042;-65
2022/07/10 08:02:23;;;;;;;7.68;1.70;;;;;;;-144.47;59.77;53396.38;4975277;28;20038;-67
2022/07/10 08:04:48;;;;;;;3.20;1.20;;;;;;;-144.47;59.85;53404.31;4969258;28;20109;-70
2022/07/10 08:07:14;;;;;;;5.78;1.52;;;;;;;-144.47;60.69;53366.56;4965731;28;20043;-70
2022/07/10 08:09:39;;;;;;;9.00;1.35;;;;;;;-144.47;58.13;53396.38;4965748;28;20901;-69
2022/07/10 08:12:05;;;;;;;13.93;1.38;;;;;;;-144.47;58.16;53372.53;4965290;28;20030;-71
2022/07/10 08:14:30;;;;;;;7.28;1.30;;;;;;;-144.47;59.03;53394.38;4963101;28;20125;-68
2022/07/10 08:16:55;;;;;;;11.82;2.17;;;;;;;-144.47;57.44;53368.56;4967061;28;20054;-67
2022/07/10 08:19:21;;;;;;;12.73;1.77;;;;;;;-144.47;58.67;53382.47;4977473;28;20030;-69
2022/07/10 08:21:46;;;;;;;8.20;1.85;;;;;;;-144.47;59.23;53418.22;4967417;28;20081;-67
2022/07/10 08:24:11;;;;;;;4.43;1.23;;;;;;;-144.47;59.49;53404.31;4964475;28;20081;-68
2022/07/10 08:26:37;;;;;;;8.80;1.50;;;;;;;-144.47;60.20;53380.47;4967577;28;20018;-68
2022/07/10 08:29:02;;;;;;;5.30;1.75;;;;;;;-144.47;58.38;53364.59;4971722;28;20045;-68
2022/07/10 08:31:27;;;;;;;6.70;1.60;;;;;;;-144.47;58.20;53374.50;4969569;28;20042;-68
2022/07/10 08:33:53;;;;;;;13.77;1.52;;;;;;;-144.47;57.54;53362.59;4965731;28;20182;-68
2022/07/10 08:36:18;;;;;;;7.50;1.33;;;;;;;-144.47;57.61;53386.44;4968440;28;20142;-67
2022/07/10 08:38:43;;;;;;;6.30;1.75;;;;;;;-144.47;56.71;53386.44;4967481;28;20038;-68
2022/07/10 08:41:12;;;;;;;7.43;1.77;;;;;;;-144.47;56.62;53376.50;4965430;28;20097;-70
2022/07/10 08:43:38;;;;;;;8.27;1.52;;;;;;;-144.47;56.28;53346.72;4960452;28;20432;-69
2022/07/10 08:46:05;;;;;;;13.25;2.20;;;;;;;-144.47;55.92;53376.50;4965178;28;20051;-68
2022/07/10 08:48:33;;;;;;;4.75;1.17;;;;;;;-144.47;55.61;53380.47;4969559;28;20571;-69
2022/07/10 08:51:04;;;;;;;14.18;1.90;;;;;;;-144.47;55.15;53328.81;4966809;28;20151;-67
2022/07/10 08:53:31;;;;;;;8.95;1.67;;;;;;;-144.47;53.79;53312.94;4968899;28;20038;-71
2022/07/10 08:55:58;;;;;;;12.57;1.83;;;;;;;-144.47;54.24;53352.66;4966576;28;20022;-68
2022/07/10 08:58:23;;;;;;;10.27;1.80;;;;;;;-144.47;54.40;53306.97;4966085;28;20045;-67
2022/07/10 09:00:49;;;;;;;12.52;2.70;;;;;;;-144.47;53.46;53364.59;4964036;28;20046;-67
2022/07/10 09:03:15;;;;;;;17.73;2.47;;;;;;;-144.47;54.23;53342.72;4967010;28;20467;-67
2022/07/10 09:05:41;;;;;;;5.45;1.58;;;;;;;-144.47;54.43;53360.63;4969179;28;20081;-67
2022/07/10 09:08:24;;;;;;;8.38;1.77;;;;;;;-144.47;54.68;53366.56;4971041;28;20058;-68
2022/07/10 09:10:50;;;;;;;14.30;1.52;;;;;;;-144.47;54.88;53344.72;4978610;28;20023;-67
2022/07/10 09:13:16;;;;;;;13.32;1.55;;;;;;;-144.47;54.23;53360.63;4990098;28;20574;-69
2022/07/10 09:15:48;;;;;;;10.98;1.77;;;;;;;-144.47;53.78;53362.59;5005270;28;20029;-69
2022/07/10 09:18:19;;;;;;;9.82;1.85;;;;;;;-144.47;54.23;53376.50;4977997;28;20480;-68
2022/07/10 09:20:46;;;;;;;13.65;1.98;;;;;;;-144.47;53.99;53360.63;4991609;28;20034;-70
2022/07/10 09:23:22;;;;;;;12.23;1.67;;;;;;;-144.47;54.42;53384.44;4977050;28;20117;-69
2022/07/10 09:25:50;;;;;;;10.52;1.85;;;;;;;-144.47;54.69;53348.69;4992601;28;20034;-69
2022/07/10 09:28:18;;;;;;;9.02;2.33;;;;;;;-144.47;53.72;53336.78;4999235;28;20407;-71
2022/07/10 09:30:43;;;;;;;16.23;3.50;;;;;;;-144.47;53.80;53394.38;4996484;28;20026;-69
2022/07/10 09:33:31;;;;;;;12.48;1.70;;;;;;;-144.47;52.46;53372.53;4996722;28;20103;-69
2022/07/10 09:36:11;;;;;;;11.68;1.85;;;;;;;-144.47;52.91;53328.81;4999570;28;20051;-70
2022/07/10 09:38:43;;;;;;;16.50;3.65;;;;;;;-144.47;51.00;53332.81;4991278;28;20041;-70
2022/07/10 09:41:11;;;;;;;13.90;2.30;;;;;;;-144.47;50.55;53364.59;4994338;28;20076;-68
2022/07/10 09:43:47;;;;;;;9.27;1.77;;;;;;;-144.47;50.66;53348.69;4990417;28;20127;-69
2022/07/10 09:46:17;;;;;;;23.05;2.28;;;;;;;-144.47;50.71;53338.75;4990220;28;20030;-69
2022/07/10 09:48:42;;;;;;;10.52;2.08;;;;;;;-144.47;50.38;53340.75;4989242;28;20030;-66
2022/07/10 09:51:10;;;;;;;14.38;2.63;;;;;;;-144.47;49.94;53338.75;4981438;28;20033;-68
2022/07/10 09:53:40;;;;;;;10.27;1.95;;;;;;;-144.47;48.77;53348.69;4984201;28;20026;-68
2022/07/10 09:56:08;;;;;;;10.82;2.83;;;;;;;-144.47;49.38;53344.72;4983207;28;20435;-68
2022/07/10 09:58:35;;;;;;;15.27;2.22;;;;;;;-144.47;48.81;53314.91;4983169;28;20081;-69
2022/07/10 10:01:03;;;;;;;10.40;1.60;;;;;;;-144.47;49.67;53360.63;4979738;28;20083;-68
2022/07/10 10:03:33;;;;;;;13.27;2.20;;;;;;;-144.47;50.16;53336.78;4992687;28;20033;-68
2022/07/10 10:06:10;;;;;;;19.10;2.65;;;;;;;-144.47;50.52;53316.91;4982301;28;20051;-69
2022/07/10 10:08:47;;;;;;;29.25;2.90;;;;;;;-144.47;50.08;53340.75;4971842;28;20105;-69
2022/07/10 10:11:21;;;;;;;11.48;1.92;;;;;;;-144.47;50.07;53360.63;4986296;28;20035;-67
2022/07/10 10:13:48;;;;;;;13.73;2.00;;;;;;;-144.47;49.17;53318.91;4987175;28;20488;-69
2022/07/10 10:16:14;;;;;;;18.65;2.45;;;;;;;-144.47;48.80;53320.88;4977796;28;20596;-68
2022/07/10 10:20:36;;;;;;;9.52;2.20;;;;;;;-144.47;48.74;53354.66;4995062;28;20104;-67
2022/07/10 10:21:28;;;;;;;11.15;1.98;;;;;;;-144.47;48.63;53305.00;4987875;28;20104;-67
2022/07/10 10:23:55;;;;;;;14.65;2.00;;;;;;;-144.47;49.29;53358.63;4976975;28;20022;-68
2022/07/10 10:26:22;;;;;;;8.80;1.88;;;;;;;-144.47;48.09;53301.03;4977279;28;20030;-69
2022/07/10 10:28:50;;;;;;;16.40;1.95;;;;;;;-144.47;47.72;53301.03;4977130;28;20023;-68
2022/07/10 10:31:16;;;;;;;8.38;1.85;;;;;;;-144.47;47.52;53310.94;4992175;28;20022;-65
2022/07/10 10:33:44;;;;;;;14.60;2.08;;;;;;;-144.47;45.88;53297.03;4983620;28;20119;-67
2022/07/10 10:36:12;;;;;;;17.77;1.65;;;;;;;-144.47;45.30;53312.94;4988702;28;20030;-71
2022/07/10 10:38:56;;;;;;;9.82;1.85;;;;;;;-144.47;44.54;53344.72;4980831;28;20042;-68
2022/07/10 10:41:33;;;;;;;14.55;2.03;;;;;;;-144.47;43.79;53318.91;4973221;28;20480;-67
2022/07/10 10:44:15;;;;;;;9.40;1.65;;;;;;;-144.47;44.14;53285.13;4988639;28;20037;-66
2022/07/10 10:46:49;;;;;;;7.88;1.30;;;;;;;-144.47;43.46;53332.81;4979023;28;20053;-65
2022/07/10 10:49:16;;;;;;;10.23;1.85;;;;;;;-144.47;42.97;53305.00;4991972;28;20484;-68
2022/07/10 10:52:08;;;;;;;13.13;2.13;;;;;;;-144.47;43.59;53295.06;4970851;28;20118;-65
2022/07/10 10:55:04;;;;;;;8.75;1.73;;;;;;;-144.47;42.81;53306.97;4979436;28;20034;-69
2022/07/10 10:57:32;;;;;;;14.07;2.58;;;;;;;-144.47;42.57;53293.06;4987753;28;20036;-66
2022/07/10 10:59:59;;;;;;;10.03;1.87;;;;;;;-144.47;42.54;53312.94;4982059;28;20081;-67
2022/07/10 11:02:37;;;;;;;13.65;1.73;;;;;;;-144.47;42.93;53263.28;4979859;28;20780;-66
2022/07/10 11:05:18;;;;;;;11.80;1.90;;;;;;;-144.47;43.17;53308.97;4982206;28;20089;-67
2022/07/10 11:07:59;;;;;;;9.80;1.77;;;;;;;-144.47;43.22;53291.09;4990517;28;20479;-66
2022/07/10 11:10:39;;;;;;;14.20;2.08;;;;;;;-144.47;43.60;53324.84;4972283;28;20038;-68
2022/07/10 11:13:15;;;;;;;17.80;2.60;;;;;;;-144.47;43.92;53297.03;4981792;28;20026;-69
2022/07/10 11:15:42;;;;;;;9.98;2.22;;;;;;;-144.47;44.00;53275.19;4979699;28;20539;-67
2022/07/10 11:18:19;;;;;;;14.43;2.08;;;;;;;-144.47;42.96;53299.03;4973903;28;20062;-65